createdAt,value
2018-11-02T00:01:16.179Z,6.77
2018-11-02T00:03:43.369Z,6.70
2018-11-02T00:06:10.596Z,6.13
2018-11-02T00:08:37.702Z,6.10
2018-11-02T00:11:04.885Z,6.10
2018-11-02T00:13:32.055Z,7.17
2018-11-02T00:15:59.253Z,5.27
2018-11-02T00:18:26.418Z,5.30
2018-11-02T00:20:53.586Z,5.73
2018-11-02T00:23:20.759Z,5.60
2018-11-02T00:25:47.930Z,5.60
2018-11-02T00:28:15.103Z,5.77
2018-11-02T00:30:42.262Z,5.23
2018-11-02T00:33:09.505Z,5.50
2018-11-02T00:35:36.655Z,5.70
2018-11-02T00:38:03.846Z,5.57
2018-11-02T00:40:30.994Z,5.63
2018-11-02T00:42:58.184Z,5.00
2018-11-02T00:45:25.337Z,7.20
2018-11-02T00:47:52.609Z,5.87
2018-11-02T00:50:19.787Z,5.60
2018-11-02T00:52:47.029Z,6.07
2018-11-02T00:55:14.194Z,5.17
2018-11-02T00:57:41.352Z,5.63
2018-11-02T01:00:09.574Z,5.60
2018-11-02T01:02:36.835Z,6.70
2018-11-02T01:05:04.179Z,5.10
2018-11-02T01:07:31.363Z,5.00
2018-11-02T01:09:58.535Z,5.10
2018-11-02T01:12:25.705Z,7.43
2018-11-02T01:14:52.859Z,5.00
2018-11-02T01:17:20.087Z,4.83
2018-11-02T01:19:47.266Z,5.13
2018-11-02T01:22:14.452Z,6.10
2018-11-02T01:24:41.599Z,5.00
2018-11-02T01:27:08.752Z,4.50
2018-11-02T01:29:36.002Z,6.60
2018-11-02T01:32:03.191Z,4.67
2018-11-02T01:34:30.384Z,5.47
2018-11-02T01:36:57.496Z,4.37
2018-11-02T01:39:24.657Z,6.00
2018-11-02T01:41:51.818Z,4.30
2018-11-02T01:44:19.095Z,4.00
2018-11-02T01:46:46.267Z,3.50
2018-11-02T01:49:13.908Z,3.10
2018-11-02T01:51:41.054Z,3.00
2018-11-02T01:54:08.223Z,3.20
2018-11-02T01:56:35.491Z,3.40
2018-11-02T01:59:02.684Z,7.13
2018-11-02T02:01:29.805Z,4.67
2018-11-02T02:03:56.971Z,4.23
2018-11-02T02:06:24.158Z,3.10
2018-11-02T02:08:51.328Z,2.57
2018-11-02T02:11:18.490Z,2.87
2018-11-02T02:13:45.726Z,3.00
2018-11-02T02:16:12.923Z,2.77
2018-11-02T02:18:40.092Z,2.70
2018-11-02T02:21:07.262Z,3.10
2018-11-02T02:23:34.448Z,2.77
2018-11-02T02:26:01.619Z,2.70
2018-11-02T02:28:28.815Z,3.00
2018-11-02T02:30:55.961Z,2.70
2018-11-02T02:33:23.131Z,3.03
2018-11-02T02:35:50.283Z,2.70
2018-11-02T02:38:17.453Z,3.07
2018-11-02T02:40:44.695Z,2.43
2018-11-02T02:43:11.872Z,2.50
2018-11-02T02:45:39.038Z,2.17
2018-11-02T02:48:06.198Z,2.40
2018-11-02T02:50:33.358Z,2.13
2018-11-02T02:53:00.639Z,2.47
2018-11-02T02:55:27.819Z,1.77
2018-11-02T02:57:54.971Z,2.87
2018-11-02T03:00:22.140Z,2.40
2018-11-02T03:02:49.290Z,2.23
2018-11-02T03:05:16.505Z,2.13
2018-11-02T03:07:43.693Z,2.10
2018-11-02T03:10:10.949Z,1.87
2018-11-02T03:12:38.383Z,2.20
2018-11-02T03:15:05.629Z,1.87
2018-11-02T03:17:32.814Z,2.00
2018-11-02T03:19:59.965Z,4.63
2018-11-02T03:22:27.212Z,1.70
2018-11-02T03:24:54.294Z,1.50
2018-11-02T03:27:21.443Z,1.70
2018-11-02T03:29:48.604Z,1.80
2018-11-02T03:32:15.767Z,3.80
2018-11-02T03:34:42.942Z,4.73
2018-11-02T03:37:10.103Z,3.07
2018-11-02T03:39:37.270Z,1.97
2018-11-02T03:42:04.807Z,1.90
2018-11-02T03:44:31.978Z,1.80
2018-11-02T03:46:59.184Z,1.77
2018-11-02T03:49:26.766Z,1.93
2018-11-02T03:51:53.970Z,1.80
2018-11-02T03:54:21.285Z,3.30
2018-11-02T03:56:48.555Z,1.90
2018-11-02T03:59:15.735Z,1.80
2018-11-02T04:01:42.941Z,1.93
2018-11-02T04:04:10.116Z,1.93
2018-11-02T04:06:37.311Z,6.53
2018-11-02T04:09:05.605Z,1.83
2018-11-02T04:11:32.790Z,2.60
2018-11-02T04:13:59.956Z,2.20
2018-11-02T04:16:27.150Z,1.83
2018-11-02T04:18:54.380Z,1.60
2018-11-02T04:21:21.527Z,3.50
2018-11-02T04:23:48.714Z,1.50
2018-11-02T04:26:15.891Z,1.63
2018-11-02T04:28:43.094Z,1.90
2018-11-02T04:31:10.385Z,1.77
2018-11-02T04:33:37.466Z,1.80
2018-11-02T04:36:04.918Z,1.50
2018-11-02T04:38:32.083Z,1.70
2018-11-02T04:40:59.267Z,2.30
2018-11-02T04:43:26.452Z,1.50
2018-11-02T04:45:53.618Z,1.60
2018-11-02T04:48:20.761Z,1.70
2018-11-02T04:50:47.997Z,1.53
2018-11-02T04:53:15.131Z,3.43
2018-11-02T04:55:42.306Z,1.63
2018-11-02T04:58:09.462Z,1.40
2018-11-02T05:00:36.617Z,2.10
2018-11-02T05:03:04.671Z,1.60
2018-11-02T05:05:31.883Z,5.03
2018-11-02T05:07:59.029Z,1.70
2018-11-02T05:10:26.207Z,3.33
2018-11-02T05:12:53.378Z,1.80
2018-11-02T05:15:20.574Z,1.67
2018-11-02T05:17:47.755Z,2.70
2018-11-02T05:20:14.920Z,1.50
2018-11-02T05:22:42.079Z,1.60
2018-11-02T05:25:09.991Z,1.37
2018-11-02T05:27:37.229Z,1.60
2018-11-02T05:30:04.607Z,1.53
2018-11-02T05:32:31.765Z,1.60
2018-11-02T05:34:58.933Z,3.23
2018-11-02T05:37:26.090Z,3.20
2018-11-02T05:39:53.305Z,2.13
2018-11-02T05:42:20.491Z,2.57
2018-11-02T05:44:47.749Z,1.83
2018-11-02T05:47:14.939Z,1.47
2018-11-02T05:49:42.080Z,1.60
2018-11-02T05:52:09.232Z,1.40
2018-11-02T05:54:36.397Z,1.80
2018-11-02T05:57:03.557Z,1.73
2018-11-02T05:59:30.726Z,1.40
2018-11-02T06:01:57.923Z,3.47
2018-11-02T06:04:25.106Z,4.37
2018-11-02T06:06:52.298Z,1.97
2018-11-02T06:09:19.497Z,2.10
2018-11-02T06:11:46.704Z,2.40
2018-11-02T06:14:13.867Z,3.17
2018-11-02T06:16:41.082Z,2.60
2018-11-02T06:19:08.289Z,2.63
2018-11-02T06:21:35.470Z,1.60
2018-11-02T06:24:02.755Z,1.50
2018-11-02T06:26:29.846Z,2.50
2018-11-02T06:28:57.036Z,2.70
2018-11-02T06:31:24.204Z,1.57
2018-11-02T06:33:51.382Z,1.50
2018-11-02T06:36:18.598Z,1.73
2018-11-02T06:38:45.821Z,2.27
2018-11-02T06:41:12.949Z,1.87
2018-11-02T06:43:40.109Z,1.70
2018-11-02T06:46:07.277Z,2.87
2018-11-02T06:48:34.489Z,2.03
2018-11-02T06:51:01.745Z,2.20
2018-11-02T06:53:28.810Z,2.10
2018-11-02T06:55:56.040Z,2.50
2018-11-02T06:58:23.235Z,3.13
2018-11-02T07:00:50.415Z,5.97
2018-11-02T07:03:17.591Z,3.17
2018-11-02T07:05:44.757Z,4.87
2018-11-02T07:08:12.188Z,2.60
2018-11-02T07:10:39.082Z,3.40
2018-11-02T07:13:06.234Z,3.33
2018-11-02T07:15:33.440Z,2.40
2018-11-02T07:18:00.619Z,2.53
2018-11-02T07:20:27.773Z,3.57
2018-11-02T07:22:54.943Z,3.60
2018-11-02T07:25:22.320Z,2.60
2018-11-02T07:27:49.311Z,2.00
2018-11-02T07:30:16.470Z,4.00
2018-11-02T07:32:43.666Z,2.30
2018-11-02T07:35:11.024Z,2.20
2018-11-02T07:37:38.206Z,2.40
2018-11-02T07:40:06.125Z,2.20
2018-11-02T07:42:33.283Z,2.30
2018-11-02T07:45:00.452Z,2.70
2018-11-02T07:47:27.620Z,3.43
2018-11-02T07:49:54.761Z,2.23
2018-11-02T07:52:22.015Z,2.30
2018-11-02T07:54:49.153Z,2.50
2018-11-02T07:57:16.370Z,2.07
2018-11-02T07:59:43.571Z,4.20
2018-11-02T08:02:10.766Z,3.50
2018-11-02T08:04:37.971Z,3.10
2018-11-02T08:07:05.311Z,3.33
2018-11-02T08:09:32.546Z,5.87
2018-11-02T08:11:59.714Z,3.47
2018-11-02T08:14:26.886Z,4.27
2018-11-02T08:16:54.052Z,3.97
2018-11-02T08:19:21.226Z,5.57
2018-11-02T08:21:48.474Z,6.03
2018-11-02T08:24:15.641Z,6.63
2018-11-02T08:26:42.894Z,10.10
2018-11-02T08:29:10.426Z,7.50
2018-11-02T08:31:37.583Z,9.40
2018-11-02T08:34:04.753Z,9.20
2018-11-02T08:36:32.021Z,9.37
2018-11-02T08:38:59.187Z,12.30
2018-11-02T08:41:26.338Z,11.07
2018-11-02T08:43:53.520Z,16.53
2018-11-02T08:46:20.765Z,9.47
2018-11-02T08:48:47.870Z,11.17
2018-11-02T08:51:15.173Z,12.60
2018-11-02T08:53:42.346Z,8.70
2018-11-02T08:56:09.501Z,10.73
2018-11-02T08:58:36.843Z,16.90
2018-11-02T09:01:03.942Z,10.90
2018-11-02T09:03:31.126Z,9.77
2018-11-02T09:05:58.353Z,12.50
2018-11-02T09:08:25.541Z,20.13
2018-11-02T09:10:52.714Z,11.80
2018-11-02T09:13:19.907Z,10.57
2018-11-02T09:15:47.090Z,17.30
2018-11-02T09:18:14.262Z,17.60
2018-11-02T09:20:41.454Z,18.27
2018-11-02T09:23:08.615Z,20.20
2018-11-02T09:25:35.789Z,12.60
2018-11-02T09:28:03.008Z,16.77
2018-11-02T09:30:30.128Z,14.53
2018-11-02T09:32:57.446Z,15.10
2018-11-02T09:35:24.625Z,14.23
2018-11-02T09:37:51.826Z,10.63
2018-11-02T09:40:19.057Z,16.90
2018-11-02T09:42:46.275Z,15.60
2018-11-02T09:45:14.214Z,16.13
2018-11-02T09:47:41.603Z,13.07
2018-11-02T09:50:09.775Z,12.87
2018-11-02T09:52:37.750Z,11.03
2018-11-02T09:55:05.198Z,10.37
2018-11-02T09:57:32.406Z,13.13
2018-11-02T09:59:59.554Z,8.13
2018-11-02T10:02:26.722Z,12.10
2018-11-02T10:04:53.923Z,12.83
2018-11-02T10:07:21.094Z,10.00
2018-11-02T10:09:48.303Z,12.60
2018-11-02T10:12:15.593Z,15.10
2018-11-02T10:14:42.728Z,9.00
2018-11-02T10:17:09.904Z,9.80
2018-11-02T10:19:37.070Z,9.73
2018-11-02T10:22:04.217Z,11.60
2018-11-02T10:24:31.388Z,16.93
2018-11-02T10:26:58.541Z,10.67
2018-11-02T10:29:25.771Z,16.20
2018-11-02T10:31:53.390Z,12.47
2018-11-02T10:34:20.578Z,10.27
2018-11-02T10:36:47.783Z,11.83
2018-11-02T10:39:14.975Z,14.30
2018-11-02T10:41:45.303Z,13.57
2018-11-02T10:44:12.886Z,18.43
2018-11-02T10:46:40.050Z,8.13
2018-11-02T10:49:07.326Z,8.90
2018-11-02T10:51:34.488Z,12.83
2018-11-02T10:54:01.670Z,11.87
2018-11-02T10:56:28.886Z,12.47
2018-11-02T10:58:56.031Z,16.60
2018-11-02T11:01:28.750Z,17.47
2018-11-02T11:03:55.891Z,9.20
2018-11-02T11:06:23.096Z,11.40
2018-11-02T11:08:50.266Z,11.63
2018-11-02T11:11:17.464Z,9.80
2018-11-02T11:13:45.053Z,11.97
2018-11-02T11:16:11.817Z,6.90
2018-11-02T11:18:38.999Z,12.77
2018-11-02T11:21:06.188Z,12.17
2018-11-02T11:23:33.379Z,8.80
2018-11-02T11:26:00.572Z,15.37
2018-11-02T11:28:27.759Z,11.67
2018-11-02T11:30:54.926Z,12.97
2018-11-02T11:33:22.086Z,14.37
2018-11-02T11:35:49.321Z,9.60
2018-11-02T11:38:16.477Z,13.57
2018-11-02T11:40:43.713Z,10.33
2018-11-02T11:43:10.910Z,19.63
2018-11-02T11:45:38.085Z,15.37
2018-11-02T11:48:05.256Z,12.93
2018-11-02T11:50:32.445Z,11.07
2018-11-02T11:52:59.606Z,9.67
2018-11-02T11:55:26.825Z,10.13
2018-11-02T11:57:54.025Z,10.67
2018-11-02T12:00:22.409Z,13.33
2018-11-02T12:02:50.295Z,9.93
2018-11-02T12:05:18.777Z,10.33
2018-11-02T12:07:46.099Z,10.00
2018-11-02T12:10:15.025Z,9.43
2018-11-02T12:12:42.228Z,8.23
2018-11-02T12:15:10.755Z,8.40
2018-11-02T12:17:38.154Z,11.40
2018-11-02T12:20:07.051Z,13.23
2018-11-02T12:22:34.197Z,17.07
2018-11-02T12:25:01.451Z,9.17
2018-11-02T12:27:28.635Z,8.93
2018-11-02T12:29:55.851Z,9.80
2018-11-02T12:32:23.023Z,13.33
2018-11-02T12:34:50.218Z,11.37
2018-11-02T12:37:17.512Z,9.33
2018-11-02T12:39:44.621Z,10.17
2018-11-02T12:42:11.834Z,7.03
2018-11-02T12:44:39.116Z,10.97
2018-11-02T12:47:06.317Z,11.73
2018-11-02T12:49:33.918Z,9.60
2018-11-02T12:52:00.659Z,9.60
2018-11-02T12:54:27.818Z,11.10
2018-11-02T12:56:55.050Z,10.70
2018-11-02T12:59:22.217Z,9.03
2018-11-02T13:01:49.364Z,7.10
2018-11-02T13:04:16.549Z,8.80
2018-11-02T13:06:43.777Z,7.03
2018-11-02T13:09:10.971Z,7.67
2018-11-02T13:11:38.182Z,10.80
2018-11-02T13:14:05.366Z,12.47
2018-11-02T13:16:32.523Z,10.97
2018-11-02T13:18:59.759Z,16.67
2018-11-02T13:21:26.875Z,9.30
2018-11-02T13:23:54.025Z,8.43
2018-11-02T13:26:21.271Z,9.60
2018-11-02T13:28:48.372Z,11.00
2018-11-02T13:31:15.554Z,7.93
2018-11-02T13:33:42.684Z,8.00
2018-11-02T13:36:09.902Z,6.57
2018-11-02T13:38:37.102Z,16.30
2018-11-02T13:41:04.267Z,6.87
2018-11-02T13:43:31.811Z,6.20
2018-11-02T13:45:58.917Z,6.00
2018-11-02T13:48:26.095Z,6.90
2018-11-02T13:50:53.318Z,6.90
2018-11-02T13:53:20.470Z,7.23
2018-11-02T13:55:47.697Z,7.20
2018-11-02T13:58:14.862Z,8.27
2018-11-02T14:00:42.018Z,6.17
2018-11-02T14:03:09.182Z,8.90
2018-11-02T14:05:36.334Z,4.30
2018-11-02T14:08:03.515Z,6.07
2018-11-02T14:10:30.768Z,7.43
2018-11-02T14:12:57.935Z,7.03
2018-11-02T14:15:25.108Z,5.97
2018-11-02T14:17:52.262Z,4.73
2018-11-02T14:20:19.428Z,8.50
2018-11-02T14:22:46.578Z,8.47
2018-11-02T14:25:15.050Z,6.53
2018-11-02T14:27:42.219Z,7.90
2018-11-02T14:30:10.462Z,6.80
2018-11-02T14:32:37.930Z,8.70
2018-11-02T14:35:05.133Z,9.50
2018-11-02T14:37:32.583Z,9.40
2018-11-02T14:39:59.737Z,8.83
2018-11-02T14:42:26.907Z,10.20
2018-11-02T14:44:54.055Z,8.00
2018-11-02T14:47:21.221Z,5.20
2018-11-02T14:49:48.366Z,10.00
2018-11-02T14:52:15.538Z,7.40
2018-11-02T14:54:42.706Z,10.53
2018-11-02T14:57:09.939Z,6.90
2018-11-02T14:59:37.188Z,8.67
2018-11-02T15:02:04.549Z,7.33
2018-11-02T15:04:31.732Z,6.90
2018-11-02T15:06:58.889Z,11.70
2018-11-02T15:09:26.071Z,10.40
2018-11-02T15:11:53.228Z,11.13
2018-11-02T15:14:20.358Z,7.87
2018-11-02T15:16:47.523Z,7.40
2018-11-02T15:19:14.698Z,6.27
2018-11-02T15:21:41.873Z,7.53
2018-11-02T15:24:09.025Z,7.73
2018-11-02T15:26:36.267Z,5.40
2018-11-02T15:29:03.336Z,6.63
2018-11-02T15:31:30.514Z,7.20
2018-11-02T15:33:57.790Z,4.00
2018-11-02T15:36:24.942Z,6.57
2018-11-02T15:38:52.122Z,4.43
2018-11-02T15:41:19.279Z,3.80
2018-11-02T15:43:46.450Z,5.87
2018-11-02T15:46:13.662Z,6.23
2018-11-02T15:48:40.826Z,6.77
2018-11-02T15:51:07.988Z,4.67
2018-11-02T15:53:35.138Z,4.10
2018-11-02T15:56:02.302Z,4.30
2018-11-02T15:58:29.457Z,5.20
2018-11-02T16:00:56.602Z,8.73
2018-11-02T16:03:23.794Z,7.33
2018-11-02T16:05:50.952Z,5.37
2018-11-02T16:08:18.106Z,3.47
2018-11-02T16:10:45.254Z,4.47
2018-11-02T16:13:12.409Z,5.03
2018-11-02T16:15:39.558Z,3.87
2018-11-02T16:18:06.713Z,5.00
2018-11-02T16:20:33.970Z,9.60
2018-11-02T16:23:01.031Z,3.90
2018-11-02T16:25:28.220Z,6.07
2018-11-02T16:27:55.455Z,8.90
2018-11-02T16:30:22.656Z,4.37
2018-11-02T16:32:49.831Z,16.20
2018-11-02T16:35:17.030Z,4.80
2018-11-02T16:37:44.265Z,6.13
2018-11-02T16:40:12.713Z,6.73
2018-11-02T16:42:39.866Z,5.67
2018-11-02T16:45:07.877Z,8.27
2018-11-02T16:47:35.051Z,3.83
2018-11-02T16:50:02.255Z,6.80
2018-11-02T16:52:29.431Z,8.83
2018-11-02T16:54:56.586Z,4.60
2018-11-02T16:57:23.873Z,7.40
2018-11-02T16:59:50.974Z,8.90
2018-11-02T17:02:18.156Z,7.00
2018-11-02T17:04:45.411Z,4.00
2018-11-02T17:07:12.511Z,3.77
2018-11-02T17:09:39.660Z,7.03
2018-11-02T17:12:06.821Z,4.00
2018-11-02T17:14:33.987Z,4.90
2018-11-02T17:17:01.151Z,4.10
2018-11-02T17:19:28.335Z,7.27
2018-11-02T17:21:55.525Z,5.90
2018-11-02T17:24:22.686Z,3.30
2018-11-02T17:26:49.966Z,4.50
2018-11-02T17:29:18.052Z,3.50
2018-11-02T17:31:45.198Z,3.33
2018-11-02T17:34:12.376Z,6.53
2018-11-02T17:36:39.662Z,4.47
2018-11-02T17:39:07.691Z,4.10
2018-11-02T17:41:34.859Z,6.13
2018-11-02T17:44:02.064Z,3.07
2018-11-02T17:46:29.211Z,6.10
2018-11-02T17:48:56.483Z,4.43
2018-11-02T17:51:23.762Z,6.60
2018-11-02T17:53:50.921Z,4.83
2018-11-02T17:56:18.082Z,4.17
2018-11-02T17:58:45.228Z,7.97
2018-11-02T18:01:12.377Z,7.03
2018-11-02T18:03:39.559Z,4.63
2018-11-02T18:06:06.861Z,5.37
2018-11-02T18:08:34.326Z,6.30
2018-11-02T18:11:01.513Z,5.10
2018-11-02T18:13:28.922Z,6.03
2018-11-02T18:15:56.082Z,9.00
2018-11-02T18:18:23.275Z,7.23
2018-11-02T18:20:50.419Z,4.10
2018-11-02T18:23:17.655Z,5.53
2018-11-02T18:25:44.821Z,7.83
2018-11-02T18:28:11.981Z,13.47
2018-11-02T18:30:39.154Z,9.60
2018-11-02T18:33:06.331Z,12.47
2018-11-02T18:35:33.635Z,10.67
2018-11-02T18:38:00.707Z,9.90
2018-11-02T18:40:27.882Z,7.90
2018-11-02T18:42:55.058Z,6.50
2018-11-02T18:45:22.210Z,7.50
2018-11-02T18:47:50.444Z,7.50
2018-11-02T18:50:18.802Z,12.47
2018-11-02T18:52:46.578Z,6.77
2018-11-02T18:55:13.784Z,9.33
2018-11-02T18:57:40.948Z,14.57
2018-11-02T19:00:08.797Z,11.57
2018-11-02T19:02:36.067Z,13.20
2018-11-02T19:05:03.476Z,16.53
2018-11-02T19:07:30.653Z,11.17
2018-11-02T19:09:57.801Z,8.80
2018-11-02T19:12:24.975Z,10.03
2018-11-02T19:14:52.154Z,11.63
2018-11-02T19:17:19.316Z,8.93
2018-11-02T19:19:46.583Z,12.00
2018-11-02T19:22:13.654Z,12.73
2018-11-02T19:24:40.914Z,12.00
2018-11-02T19:27:08.175Z,13.90
2018-11-02T19:29:35.370Z,13.07
2018-11-02T19:32:02.535Z,10.30
2018-11-02T19:34:29.823Z,11.07
2018-11-02T19:36:56.930Z,12.70
2018-11-02T19:39:24.102Z,18.00
2018-11-02T19:41:51.296Z,18.03
2018-11-02T19:44:18.530Z,12.33
2018-11-02T19:46:45.655Z,11.87
2018-11-02T19:49:12.884Z,10.23
2018-11-02T19:51:40.012Z,11.63
2018-11-02T19:54:07.188Z,14.00
2018-11-02T19:56:34.406Z,16.20
2018-11-02T19:59:01.561Z,12.50
2018-11-02T20:01:28.714Z,14.73
2018-11-02T20:03:55.921Z,12.10
2018-11-02T20:06:23.103Z,11.50
2018-11-02T20:08:50.290Z,10.93
2018-11-02T20:11:17.454Z,9.87
2018-11-02T20:13:44.648Z,14.93
2018-11-02T20:16:11.820Z,9.30
2018-11-02T20:18:39.006Z,10.03
2018-11-02T20:21:06.378Z,12.90
2018-11-02T20:23:33.557Z,11.90
2018-11-02T20:26:00.781Z,9.73
2018-11-02T20:28:27.977Z,11.17
2018-11-02T20:30:55.142Z,9.33
2018-11-02T20:33:22.319Z,11.80
2018-11-02T20:35:49.542Z,14.77
2018-11-02T20:38:16.698Z,11.23
2018-11-02T20:40:43.893Z,10.80
2018-11-02T20:43:11.191Z,11.77
2018-11-02T20:45:38.357Z,10.40
2018-11-02T20:48:05.597Z,13.90
2018-11-02T20:50:32.797Z,12.43
2018-11-02T20:52:59.999Z,20.53
2018-11-02T20:55:27.159Z,16.67
2018-11-02T20:57:54.336Z,17.37
2018-11-02T21:00:22.779Z,19.00
2018-11-02T21:02:50.191Z,14.27
2018-11-02T21:05:18.293Z,14.73
2018-11-02T21:07:45.953Z,10.40
2018-11-02T21:10:14.445Z,10.17
2018-11-02T21:12:41.634Z,10.50
2018-11-02T21:15:11.263Z,13.00
2018-11-02T21:17:38.864Z,11.20
2018-11-02T21:20:06.868Z,8.83
2018-11-02T21:22:34.054Z,14.33
2018-11-02T21:25:01.214Z,12.37
2018-11-02T21:32:43.821Z,11.67
2018-11-02T21:35:11.000Z,19.33
2018-11-02T21:42:51.915Z,17.53
2018-11-02T21:55:30.848Z,10.80
2018-11-02T21:58:09.031Z,9.33
2018-11-02T22:00:36.214Z,13.40
2018-11-02T22:03:03.404Z,8.27
2018-11-02T22:05:30.979Z,10.60
2018-11-02T22:08:03.522Z,10.37
2018-11-02T22:10:36.255Z,10.10
2018-11-02T22:15:42.043Z,9.90
2018-11-02T22:18:09.492Z,9.43
2018-11-02T22:20:36.671Z,9.57
2018-11-02T22:25:36.616Z,7.73
2018-11-02T22:30:36.535Z,10.40
2018-11-02T22:33:03.642Z,16.63
2018-11-02T22:35:30.803Z,12.00
2018-11-02T22:37:58.017Z,15.20
2018-11-02T22:40:25.175Z,10.73
2018-11-02T22:45:25.696Z,12.83
2018-11-02T22:47:58.251Z,12.27
2018-11-02T22:50:25.436Z,10.40
2018-11-02T22:52:52.599Z,10.87
2018-11-02T22:55:30.882Z,12.40
2018-11-02T22:57:58.127Z,11.57
2018-11-02T23:00:25.367Z,10.73
2018-11-02T23:02:52.558Z,12.77
2018-11-02T23:05:19.732Z,10.80
2018-11-02T23:07:46.983Z,11.23
2018-11-02T23:10:14.189Z,19.20
2018-11-02T23:12:41.699Z,12.00
2018-11-02T23:15:09.705Z,13.07
2018-11-02T23:17:37.028Z,14.13
2018-11-02T23:20:04.539Z,10.90
2018-11-02T23:22:31.711Z,9.43
2018-11-02T23:24:58.864Z,13.30
2018-11-02T23:27:26.078Z,8.63
2018-11-02T23:29:53.310Z,9.80
2018-11-02T23:32:20.403Z,9.80
2018-11-02T23:34:47.589Z,10.27
2018-11-02T23:37:14.757Z,8.23
2018-11-02T23:39:41.924Z,8.87
2018-11-02T23:42:09.215Z,8.47
2018-11-02T23:44:36.396Z,11.77
2018-11-02T23:47:03.606Z,11.63
2018-11-02T23:49:30.781Z,10.40
2018-11-02T23:51:58.195Z,9.93
2018-11-02T23:54:25.373Z,9.10
2018-11-02T23:56:52.548Z,11.03
2018-11-02T23:59:19.752Z,13.73
